createdAt,value
2022-10-26T00:00:09.497Z,9.49
2022-10-26T00:00:19.520Z,9.46
2022-10-26T00:00:30.417Z,9.35
2022-10-26T00:00:39.509Z,9.48
2022-10-26T00:00:49.523Z,9.45
2022-10-26T00:00:59.495Z,9.49
2022-10-26T00:01:09.589Z,9.32
2022-10-26T00:01:19.540Z,9.45
2022-10-26T00:01:29.672Z,9.39
2022-10-26T00:01:39.626Z,9.46
2022-10-26T00:01:49.683Z,9.46
2022-10-26T00:01:59.669Z,9.53
2022-10-26T00:02:09.630Z,9.42
2022-10-26T00:02:19.558Z,9.60
2022-10-26T00:02:29.524Z,9.39
2022-10-26T00:02:39.536Z,9.49
2022-10-26T00:02:49.918Z,9.43
2022-10-26T00:02:59.488Z,9.30
2022-10-26T00:03:09.504Z,9.46
2022-10-26T00:03:19.482Z,9.38
2022-10-26T00:03:29.504Z,9.27
2022-10-26T00:03:40.364Z,9.46
2022-10-26T00:03:49.483Z,9.31
2022-10-26T00:04:00.344Z,9.42
2022-10-26T00:04:09.538Z,9.57
2022-10-26T00:04:19.479Z,9.45
2022-10-26T00:04:29.496Z,9.58
2022-10-26T00:04:40.503Z,9.46
2022-10-26T00:04:49.496Z,9.58
2022-10-26T00:04:59.597Z,9.58
2022-10-26T00:05:09.491Z,9.50
2022-10-26T00:05:20.365Z,9.45
2022-10-26T00:05:29.484Z,9.46
2022-10-26T00:05:39.474Z,9.42
2022-10-26T00:05:49.473Z,9.39
2022-10-26T00:05:59.486Z,9.57
2022-10-26T00:06:09.475Z,9.49
2022-10-26T00:06:19.469Z,9.48
2022-10-26T00:06:29.473Z,9.52
2022-10-26T00:06:39.488Z,9.38
2022-10-26T00:06:49.469Z,9.50
2022-10-26T00:06:59.487Z,9.56
2022-10-26T00:07:09.475Z,9.64
2022-10-26T00:07:19.495Z,9.45
2022-10-26T00:07:30.487Z,9.48
2022-10-26T00:07:49.539Z,9.45
2022-10-26T00:07:59.468Z,9.64
2022-10-26T00:08:09.464Z,9.48
2022-10-26T00:08:19.463Z,9.48
2022-10-26T00:08:29.476Z,9.64
2022-10-26T00:08:39.483Z,9.48
2022-10-26T00:08:52.493Z,9.49
2022-10-26T00:08:59.461Z,9.60
2022-10-26T00:09:09.522Z,9.48
2022-10-26T00:09:19.497Z,9.34
2022-10-26T00:09:29.462Z,9.43
2022-10-26T00:09:39.465Z,9.52
2022-10-26T00:09:49.480Z,9.52
2022-10-26T00:09:59.454Z,9.43
2022-10-26T00:10:09.485Z,9.52
2022-10-26T00:10:19.464Z,9.52
2022-10-26T00:10:31.550Z,9.35
2022-10-26T00:10:39.452Z,9.57
2022-10-26T00:10:49.467Z,9.52
2022-10-26T00:10:59.449Z,9.64
2022-10-26T00:11:09.470Z,9.49
2022-10-26T00:11:19.455Z,9.43
2022-10-26T00:11:29.453Z,9.57
2022-10-26T00:11:39.573Z,9.57
2022-10-26T00:11:49.456Z,9.68
2022-10-26T00:12:00.361Z,9.64
2022-10-26T00:12:09.451Z,9.52
2022-10-26T00:12:20.353Z,9.49
2022-10-26T00:12:29.448Z,9.56
2022-10-26T00:12:39.444Z,9.57
2022-10-26T00:12:49.887Z,9.40
2022-10-26T00:12:59.461Z,9.66
2022-10-26T00:13:09.454Z,9.50
2022-10-26T00:13:19.521Z,9.49
2022-10-26T00:13:29.463Z,9.48
2022-10-26T00:13:39.454Z,9.58
2022-10-26T00:13:49.446Z,9.63
2022-10-26T00:13:59.449Z,9.58
2022-10-26T00:14:09.436Z,9.63
2022-10-26T00:14:19.438Z,9.57
2022-10-26T00:14:29.486Z,9.50
2022-10-26T00:14:39.528Z,9.40
2022-10-26T00:14:49.434Z,9.57
2022-10-26T00:14:59.433Z,9.46
2022-10-26T00:15:09.530Z,9.39
2022-10-26T00:15:19.468Z,9.58
2022-10-26T00:15:29.437Z,9.57
2022-10-26T00:15:39.427Z,9.48
2022-10-26T00:15:49.469Z,9.45
2022-10-26T00:16:09.431Z,9.53
2022-10-26T00:16:19.430Z,9.50
2022-10-26T00:16:29.445Z,9.53
2022-10-26T00:16:39.427Z,9.35
2022-10-26T00:16:49.436Z,9.43
2022-10-26T00:16:59.452Z,9.58
2022-10-26T00:17:09.427Z,9.58
2022-10-26T00:17:19.447Z,9.56
2022-10-26T00:17:29.481Z,9.49
2022-10-26T00:17:39.421Z,9.50
2022-10-26T00:17:49.640Z,9.30
2022-10-26T00:17:59.472Z,9.38
2022-10-26T00:18:09.420Z,9.49
2022-10-26T00:18:19.452Z,9.46
2022-10-26T00:18:29.448Z,9.45
2022-10-26T00:18:39.420Z,9.45
2022-10-26T00:18:49.425Z,9.45
2022-10-26T00:18:59.427Z,9.60
2022-10-26T00:19:09.423Z,9.49
2022-10-26T00:19:19.459Z,9.53
2022-10-26T00:19:30.358Z,9.48
2022-10-26T00:19:39.451Z,9.40
2022-10-26T00:19:49.441Z,9.46
2022-10-26T00:19:59.423Z,9.49
2022-10-26T00:20:09.412Z,9.48
2022-10-26T00:20:19.425Z,9.35
2022-10-26T00:20:29.423Z,9.48
2022-10-26T00:20:39.405Z,9.43
2022-10-26T00:20:49.417Z,9.49
2022-10-26T00:20:59.413Z,9.42
2022-10-26T00:21:09.409Z,9.60
2022-10-26T00:21:19.401Z,9.57
2022-10-26T00:21:29.407Z,9.52
2022-10-26T00:21:39.500Z,9.42
2022-10-26T00:21:50.383Z,9.31
2022-10-26T00:21:59.408Z,9.46
2022-10-26T00:22:09.475Z,9.46
2022-10-26T00:22:19.400Z,9.57
2022-10-26T00:22:29.409Z,9.42
2022-10-26T00:22:39.395Z,9.52
2022-10-26T00:22:49.411Z,9.56
2022-10-26T00:22:59.410Z,9.40
2022-10-26T00:23:09.416Z,9.52
2022-10-26T00:23:19.490Z,9.49
2022-10-26T00:23:29.405Z,9.52
2022-10-26T00:23:40.359Z,9.57
2022-10-26T00:23:49.424Z,9.66
2022-10-26T00:23:59.390Z,9.58
2022-10-26T00:24:09.408Z,9.40
2022-10-26T00:24:19.393Z,9.49
2022-10-26T00:24:29.401Z,9.48
2022-10-26T00:24:39.399Z,9.48
2022-10-26T00:24:49.468Z,9.53
2022-10-26T00:24:59.414Z,9.52
2022-10-26T00:25:09.393Z,9.46
2022-10-26T00:25:19.389Z,9.40
2022-10-26T00:25:29.412Z,9.45
2022-10-26T00:25:39.387Z,9.42
2022-10-26T00:25:49.480Z,9.46
2022-10-26T00:25:59.381Z,9.50
2022-10-26T00:26:10.371Z,9.57
2022-10-26T00:26:19.382Z,9.61
2022-10-26T00:26:29.383Z,9.49
2022-10-26T00:26:39.379Z,9.46
2022-10-26T00:26:49.397Z,9.48
2022-10-26T00:26:59.385Z,9.46
2022-10-26T00:27:09.379Z,9.53
2022-10-26T00:27:19.383Z,9.46
2022-10-26T00:27:29.382Z,9.40
2022-10-26T00:27:39.380Z,9.45
2022-10-26T00:27:50.856Z,9.63
2022-10-26T00:27:59.372Z,9.49
2022-10-26T00:28:09.377Z,9.46
2022-10-26T00:28:19.400Z,9.43
2022-10-26T00:28:29.377Z,9.50
2022-10-26T00:28:39.471Z,9.39
2022-10-26T00:28:49.391Z,9.38
2022-10-26T00:28:59.382Z,9.49
2022-10-26T00:29:09.382Z,9.42
2022-10-26T00:29:20.373Z,9.53
2022-10-26T00:29:29.389Z,9.53
2022-10-26T00:29:39.378Z,9.64
2022-10-26T00:29:49.370Z,9.45
2022-10-26T00:29:59.453Z,9.53
2022-10-26T00:30:09.370Z,9.46
2022-10-26T00:30:19.394Z,9.68
2022-10-26T00:30:29.458Z,9.43
2022-10-26T00:30:39.367Z,9.63
2022-10-26T00:30:49.374Z,9.66
2022-10-26T00:30:59.365Z,9.48
2022-10-26T00:31:09.375Z,9.48
2022-10-26T00:31:19.365Z,9.39
2022-10-26T00:31:29.365Z,9.35
2022-10-26T00:31:39.375Z,9.52
2022-10-26T00:31:49.363Z,9.43
2022-10-26T00:31:59.367Z,9.48
2022-10-26T00:32:09.367Z,9.38
2022-10-26T00:32:19.359Z,9.42
2022-10-26T00:32:29.400Z,9.48
2022-10-26T00:32:49.374Z,9.50
2022-10-26T00:32:59.350Z,9.38
2022-10-26T00:33:09.352Z,9.57
2022-10-26T00:33:19.354Z,9.30
2022-10-26T00:33:29.389Z,9.49
2022-10-26T00:33:39.860Z,9.38
2022-10-26T00:33:49.381Z,9.32
2022-10-26T00:33:59.385Z,9.42
2022-10-26T00:34:09.382Z,9.50
2022-10-26T00:34:19.354Z,9.40
2022-10-26T00:34:29.358Z,9.42
2022-10-26T00:34:39.355Z,9.39
2022-10-26T00:34:49.365Z,9.32
2022-10-26T00:35:10.311Z,9.50
2022-10-26T00:35:21.274Z,9.38
2022-10-26T00:35:34.479Z,9.57
2022-10-26T00:35:45.116Z,9.49
2022-10-26T00:35:45.993Z,9.49
2022-10-26T00:35:49.351Z,9.58
2022-10-26T00:35:59.343Z,9.40
2022-10-26T00:36:09.883Z,9.42
2022-10-26T00:36:19.358Z,9.43
2022-10-26T00:36:29.340Z,9.39
2022-10-26T00:36:39.337Z,9.32
2022-10-26T00:36:49.359Z,9.49
2022-10-26T00:36:59.352Z,9.40
2022-10-26T00:37:09.350Z,9.63
2022-10-26T00:37:19.369Z,9.35
2022-10-26T00:37:29.334Z,9.40
2022-10-26T00:37:39.340Z,9.42
2022-10-26T00:37:49.660Z,9.52
2022-10-26T00:37:59.860Z,9.49
2022-10-26T00:38:09.347Z,9.27
2022-10-26T00:38:19.388Z,9.40
2022-10-26T00:38:29.329Z,9.48
2022-10-26T00:38:39.329Z,9.38
2022-10-26T00:38:49.355Z,9.39
2022-10-26T00:38:59.325Z,9.53
2022-10-26T00:39:09.335Z,9.31
2022-10-26T00:39:19.326Z,9.35
2022-10-26T00:39:29.324Z,9.42
2022-10-26T00:39:39.422Z,9.34
2022-10-26T00:39:50.324Z,9.27
2022-10-26T00:39:59.337Z,9.35
2022-10-26T00:40:09.350Z,9.38
2022-10-26T00:40:19.427Z,9.58
2022-10-26T00:40:29.324Z,9.42
2022-10-26T00:40:39.319Z,9.43
2022-10-26T00:40:49.394Z,9.48
2022-10-26T00:40:59.394Z,9.42
2022-10-26T00:41:09.340Z,9.31
2022-10-26T00:41:19.313Z,9.50
2022-10-26T00:41:29.339Z,9.45
2022-10-26T00:41:39.876Z,9.31
2022-10-26T00:41:49.318Z,9.46
2022-10-26T00:41:59.314Z,9.48
2022-10-26T00:42:09.316Z,9.31
2022-10-26T00:42:19.319Z,9.52
2022-10-26T00:42:29.407Z,9.42
2022-10-26T00:42:39.314Z,9.43
2022-10-26T00:42:49.595Z,9.39
2022-10-26T00:42:59.314Z,9.42
2022-10-26T00:43:09.306Z,9.28
2022-10-26T00:43:19.313Z,9.34
2022-10-26T00:43:29.317Z,9.49
2022-10-26T00:43:39.317Z,9.38
2022-10-26T00:43:49.310Z,9.45
2022-10-26T00:43:59.318Z,9.30
2022-10-26T00:44:09.320Z,9.43
2022-10-26T00:44:19.311Z,9.31
2022-10-26T00:44:33.351Z,9.39
2022-10-26T00:44:39.458Z,9.48
2022-10-26T00:44:49.315Z,9.30
2022-10-26T00:44:59.374Z,9.28
2022-10-26T00:45:09.305Z,9.31
2022-10-26T00:45:19.314Z,9.25
2022-10-26T00:45:29.377Z,9.32
2022-10-26T00:45:39.298Z,9.32
2022-10-26T00:45:49.307Z,9.49
2022-10-26T00:45:59.351Z,9.31
2022-10-26T00:46:09.299Z,9.35
2022-10-26T00:46:19.311Z,9.30
2022-10-26T00:46:29.295Z,9.45
2022-10-26T00:46:39.373Z,9.38
2022-10-26T00:46:49.316Z,9.21
2022-10-26T00:46:59.297Z,9.32
2022-10-26T00:47:09.294Z,9.38
2022-10-26T00:47:19.329Z,9.32
2022-10-26T00:47:29.326Z,9.28
2022-10-26T00:47:39.295Z,9.24
2022-10-26T00:47:49.290Z,9.35
2022-10-26T00:47:59.290Z,9.32
2022-10-26T00:48:09.866Z,9.38
2022-10-26T00:48:19.291Z,9.43
2022-10-26T00:48:29.285Z,9.46
2022-10-26T00:48:39.886Z,9.34
2022-10-26T00:48:49.283Z,9.39
2022-10-26T00:48:59.296Z,9.31
2022-10-26T00:49:09.340Z,9.34
2022-10-26T00:49:29.290Z,9.31
2022-10-26T00:49:39.304Z,9.49
2022-10-26T00:49:49.285Z,9.43
2022-10-26T00:49:59.296Z,9.40
2022-10-26T00:50:09.305Z,9.23
2022-10-26T00:50:19.276Z,9.38
2022-10-26T00:50:29.886Z,9.38
2022-10-26T00:50:39.345Z,9.39
2022-10-26T00:50:49.350Z,9.42
2022-10-26T00:50:59.273Z,9.34
2022-10-26T00:51:09.309Z,9.28
2022-10-26T00:51:19.278Z,9.45
2022-10-26T00:51:29.275Z,9.42
2022-10-26T00:51:39.313Z,9.39
2022-10-26T00:51:49.276Z,9.40
2022-10-26T00:51:59.278Z,9.40
2022-10-26T00:52:09.290Z,9.28
2022-10-26T00:52:19.273Z,9.25
2022-10-26T00:52:29.335Z,9.21
2022-10-26T00:52:39.275Z,9.42
2022-10-26T00:52:49.500Z,9.34
2022-10-26T00:53:01.901Z,9.49
2022-10-26T00:53:09.274Z,9.40
2022-10-26T00:53:19.263Z,9.43
2022-10-26T00:53:29.261Z,9.46
2022-10-26T00:53:39.283Z,9.42
2022-10-26T00:53:49.276Z,9.32
2022-10-26T00:53:59.296Z,9.25
2022-10-26T00:54:09.277Z,9.42
2022-10-26T00:54:19.273Z,9.40
2022-10-26T00:54:29.269Z,9.43
2022-10-26T00:54:39.262Z,9.21
2022-10-26T00:54:49.370Z,9.35
2022-10-26T00:54:59.317Z,9.21
2022-10-26T00:55:09.257Z,9.40
2022-10-26T00:55:19.262Z,9.32
2022-10-26T00:55:29.252Z,9.49
2022-10-26T00:55:39.262Z,9.35
2022-10-26T00:55:49.326Z,9.43
2022-10-26T00:55:59.381Z,9.28
2022-10-26T00:56:09.250Z,9.52
2022-10-26T00:56:19.252Z,9.39
2022-10-26T00:56:29.253Z,9.42
2022-10-26T00:56:39.255Z,9.39
2022-10-26T00:56:49.314Z,9.31
2022-10-26T00:56:59.869Z,9.48
2022-10-26T00:57:09.257Z,9.38
2022-10-26T00:57:19.863Z,9.35
2022-10-26T00:57:29.265Z,9.30
2022-10-26T00:57:39.274Z,9.46
2022-10-26T00:57:49.242Z,9.43
2022-10-26T00:57:59.269Z,9.34
2022-10-26T00:58:09.251Z,9.48
2022-10-26T00:58:19.245Z,9.38
2022-10-26T00:58:29.251Z,9.40
2022-10-26T00:58:39.280Z,9.38
2022-10-26T00:58:49.244Z,9.34
2022-10-26T00:58:59.238Z,9.45
2022-10-26T00:59:09.235Z,9.34
2022-10-26T00:59:19.261Z,9.49
2022-10-26T00:59:29.232Z,9.43
2022-10-26T00:59:39.262Z,9.39
2022-10-26T00:59:49.235Z,9.35
2022-10-26T00:59:59.234Z,9.57
2022-10-26T01:00:09.246Z,9.61
2022-10-26T01:00:19.234Z,9.40
2022-10-26T01:00:29.228Z,9.53
2022-10-26T01:00:39.244Z,9.39
2022-10-26T01:00:49.228Z,9.39
2022-10-26T01:00:59.293Z,9.28
2022-10-26T01:01:09.303Z,9.34
2022-10-26T01:01:19.972Z,9.23
2022-10-26T01:01:29.322Z,9.45
2022-10-26T01:01:39.321Z,9.30
2022-10-26T01:01:49.345Z,9.35
2022-10-26T01:01:59.230Z,9.30
2022-10-26T01:02:09.219Z,9.45
2022-10-26T01:02:19.226Z,9.38
2022-10-26T01:02:29.225Z,9.30
2022-10-26T01:02:39.226Z,9.18
2022-10-26T01:02:49.469Z,9.49
2022-10-26T01:02:59.233Z,9.27
2022-10-26T01:03:09.232Z,9.32
2022-10-26T01:03:19.375Z,9.53
2022-10-26T01:03:29.273Z,9.31
2022-10-26T01:03:39.306Z,9.40
2022-10-26T01:03:49.324Z,9.49
2022-10-26T01:03:59.310Z,9.42
2022-10-26T01:04:09.279Z,9.35
2022-10-26T01:04:19.311Z,9.42
2022-10-26T01:04:29.301Z,9.34
2022-10-26T01:04:39.221Z,9.46
2022-10-26T01:04:49.871Z,9.38
2022-10-26T01:04:59.217Z,9.28
2022-10-26T01:05:09.214Z,9.32
2022-10-26T01:05:19.251Z,9.49
2022-10-26T01:05:29.235Z,9.45
2022-10-26T01:05:39.214Z,9.43
2022-10-26T01:05:49.878Z,9.34
2022-10-26T01:05:59.207Z,9.31
2022-10-26T01:06:09.245Z,9.42
2022-10-26T01:06:19.233Z,9.32
2022-10-26T01:06:29.211Z,9.40
2022-10-26T01:06:39.209Z,9.42
2022-10-26T01:06:49.266Z,9.30
2022-10-26T01:06:59.282Z,9.38
2022-10-26T01:07:09.243Z,9.24
2022-10-26T01:07:19.310Z,9.45
2022-10-26T01:07:29.256Z,9.27
2022-10-26T01:07:39.213Z,9.34
2022-10-26T01:07:49.548Z,9.32
2022-10-26T01:07:59.212Z,9.27
2022-10-26T01:08:09.218Z,9.31
2022-10-26T01:08:19.209Z,9.39
2022-10-26T01:08:29.195Z,9.32
2022-10-26T01:08:39.206Z,9.28
2022-10-26T01:08:49.195Z,9.27
2022-10-26T01:08:59.201Z,9.28
2022-10-26T01:09:09.217Z,9.28
2022-10-26T01:09:19.218Z,9.31
2022-10-26T01:09:29.925Z,9.31
2022-10-26T01:09:39.199Z,9.24
2022-10-26T01:09:49.189Z,9.30
2022-10-26T01:09:59.203Z,9.30
2022-10-26T01:10:09.191Z,9.23
2022-10-26T01:10:19.194Z,9.15
2022-10-26T01:10:29.195Z,9.27
2022-10-26T01:10:39.201Z,9.21
2022-10-26T01:10:49.190Z,9.32
2022-10-26T01:10:59.189Z,9.20
2022-10-26T01:11:09.262Z,9.24
2022-10-26T01:11:19.229Z,9.31
2022-10-26T01:11:29.198Z,9.15
2022-10-26T01:11:39.242Z,9.24
2022-10-26T01:11:49.181Z,9.20
2022-10-26T01:11:59.210Z,9.06
2022-10-26T01:12:09.867Z,9.34
2022-10-26T01:12:19.179Z,9.20
2022-10-26T01:12:29.181Z,9.21
2022-10-26T01:12:39.208Z,9.21
2022-10-26T01:12:49.189Z,9.32
2022-10-26T01:12:59.178Z,9.25
2022-10-26T01:13:09.179Z,9.24
2022-10-26T01:13:19.178Z,9.05
2022-10-26T01:13:29.179Z,9.28
2022-10-26T01:13:39.879Z,9.21
2022-10-26T01:13:49.177Z,9.21
2022-10-26T01:13:59.190Z,9.32
2022-10-26T01:14:09.171Z,9.20
2022-10-26T01:14:19.178Z,9.30
2022-10-26T01:14:29.166Z,9.13
2022-10-26T01:14:39.175Z,9.25
2022-10-26T01:14:49.212Z,9.18
2022-10-26T01:14:59.238Z,9.21
2022-10-26T01:15:09.170Z,9.24
2022-10-26T01:15:19.178Z,9.20
2022-10-26T01:15:29.170Z,9.30
2022-10-26T01:15:39.182Z,9.23
2022-10-26T01:15:49.227Z,9.32
2022-10-26T01:15:59.166Z,9.12
2022-10-26T01:16:09.167Z,9.16
2022-10-26T01:16:19.205Z,9.21
2022-10-26T01:16:29.203Z,9.31
2022-10-26T01:16:40.807Z,9.06
2022-10-26T01:16:49.167Z,9.10
2022-10-26T01:16:59.228Z,9.31
2022-10-26T01:17:09.155Z,9.25
2022-10-26T01:17:19.233Z,9.21
2022-10-26T01:17:29.157Z,9.20
2022-10-26T01:17:39.163Z,9.18
2022-10-26T01:17:49.409Z,9.13
2022-10-26T01:17:59.158Z,9.12
2022-10-26T01:18:09.154Z,9.20
2022-10-26T01:18:19.159Z,9.24
2022-10-26T01:18:29.217Z,9.12
2022-10-26T01:18:39.166Z,9.21
2022-10-26T01:18:49.156Z,9.18
2022-10-26T01:18:59.155Z,9.21
2022-10-26T01:19:09.168Z,9.06
2022-10-26T01:19:19.154Z,9.16
2022-10-26T01:19:29.218Z,9.09
2022-10-26T01:19:39.148Z,9.20
2022-10-26T01:19:49.154Z,9.05
2022-10-26T01:19:59.186Z,9.06
2022-10-26T01:20:09.153Z,9.13
2022-10-26T01:20:19.150Z,9.25
2022-10-26T01:20:29.961Z,9.21
2022-10-26T01:20:39.154Z,9.02
2022-10-26T01:20:49.230Z,9.05
2022-10-26T01:20:59.149Z,9.09
2022-10-26T01:21:09.138Z,9.24
2022-10-26T01:21:19.153Z,9.12
2022-10-26T01:21:29.148Z,9.21
2022-10-26T01:21:39.197Z,9.05
2022-10-26T01:21:49.154Z,9.21
2022-10-26T01:21:59.906Z,9.31
2022-10-26T01:22:09.134Z,9.20
2022-10-26T01:22:19.149Z,9.23
2022-10-26T01:22:29.211Z,9.24
2022-10-26T01:22:39.142Z,9.24
2022-10-26T01:22:49.154Z,9.21
2022-10-26T01:22:59.147Z,9.23
2022-10-26T01:23:09.133Z,9.28
2022-10-26T01:23:19.133Z,9.24
2022-10-26T01:23:29.136Z,9.25
2022-10-26T01:23:39.144Z,9.12
2022-10-26T01:23:49.866Z,9.21
2022-10-26T01:23:59.146Z,9.31
2022-10-26T01:24:09.228Z,9.20
2022-10-26T01:24:19.160Z,9.34
2022-10-26T01:24:29.210Z,9.01
2022-10-26T01:24:39.870Z,9.12
2022-10-26T01:24:49.146Z,9.24
2022-10-26T01:24:59.896Z,9.05
2022-10-26T01:25:09.133Z,9.23
2022-10-26T01:25:19.875Z,9.30
2022-10-26T01:25:29.152Z,9.18
2022-10-26T01:25:39.117Z,9.13
2022-10-26T01:25:49.120Z,9.01
2022-10-26T01:25:59.141Z,9.06
2022-10-26T01:26:09.135Z,9.06
2022-10-26T01:26:19.128Z,9.06
2022-10-26T01:26:29.118Z,9.10
2022-10-26T01:26:39.191Z,9.24
2022-10-26T01:26:49.226Z,9.30
2022-10-26T01:26:59.135Z,8.94
2022-10-26T01:27:09.138Z,9.10
2022-10-26T01:27:19.111Z,9.05
2022-10-26T01:27:29.125Z,9.13
2022-10-26T01:27:39.140Z,9.12
2022-10-26T01:27:49.325Z,9.05
2022-10-26T01:27:59.119Z,9.09
2022-10-26T01:28:09.146Z,9.10
2022-10-26T01:28:19.179Z,9.12
2022-10-26T01:28:29.111Z,9.10
2022-10-26T01:28:39.111Z,9.10
2022-10-26T01:28:49.118Z,9.05
2022-10-26T01:28:59.136Z,9.09
2022-10-26T01:29:09.164Z,9.01
2022-10-26T01:29:19.103Z,9.13
2022-10-26T01:29:29.120Z,8.99
2022-10-26T01:29:39.187Z,9.18
2022-10-26T01:29:49.110Z,9.01
2022-10-26T01:29:59.109Z,8.91
2022-10-26T01:30:09.100Z,9.12
2022-10-26T01:30:19.150Z,9.06
2022-10-26T01:30:29.102Z,8.94
2022-10-26T01:30:39.099Z,9.02
2022-10-26T01:30:49.103Z,9.05
2022-10-26T01:30:59.122Z,8.97
2022-10-26T01:31:09.886Z,8.97
2022-10-26T01:31:19.192Z,9.09
2022-10-26T01:31:29.094Z,9.04
2022-10-26T01:31:39.111Z,9.27
2022-10-26T01:31:49.096Z,9.13
2022-10-26T01:31:59.163Z,9.09
2022-10-26T01:32:09.142Z,9.06
2022-10-26T01:32:19.103Z,8.97
2022-10-26T01:32:29.094Z,8.97
2022-10-26T01:32:39.111Z,9.10
2022-10-26T01:32:51.875Z,8.96
2022-10-26T01:32:59.086Z,9.02
2022-10-26T01:33:09.100Z,9.06
2022-10-26T01:33:19.090Z,9.13
2022-10-26T01:33:29.096Z,9.23
2022-10-26T01:33:39.085Z,8.94
2022-10-26T01:33:49.113Z,8.93
2022-10-26T01:33:59.086Z,9.04
2022-10-26T01:34:09.095Z,8.88
2022-10-26T01:34:19.079Z,8.78
2022-10-26T01:34:29.175Z,8.99
2022-10-26T01:34:39.082Z,8.91
2022-10-26T01:34:49.088Z,9.06
2022-10-26T01:34:59.079Z,8.88
2022-10-26T01:35:09.085Z,8.93
2022-10-26T01:35:19.076Z,8.86
2022-10-26T01:35:29.097Z,9.02
2022-10-26T01:35:39.098Z,9.09
2022-10-26T01:35:49.075Z,9.04
2022-10-26T01:35:59.074Z,9.01
2022-10-26T01:36:09.084Z,8.96
2022-10-26T01:36:19.079Z,8.86
2022-10-26T01:36:29.131Z,8.81
2022-10-26T01:36:39.229Z,8.91
2022-10-26T01:36:49.075Z,8.90
2022-10-26T01:36:59.076Z,8.88
2022-10-26T01:37:09.136Z,8.84
2022-10-26T01:37:19.079Z,8.99
2022-10-26T01:37:29.078Z,8.93
2022-10-26T01:37:39.092Z,8.97
2022-10-26T01:37:49.367Z,8.97
2022-10-26T01:37:59.068Z,8.84
2022-10-26T01:38:09.071Z,8.90
2022-10-26T01:38:19.070Z,9.05
2022-10-26T01:38:29.087Z,8.91
2022-10-26T01:38:39.161Z,8.99
2022-10-26T01:38:49.889Z,8.88
2022-10-26T01:38:59.071Z,8.93
2022-10-26T01:39:09.063Z,9.04
2022-10-26T01:39:19.061Z,8.81
2022-10-26T01:39:29.072Z,8.91
2022-10-26T01:39:39.055Z,8.94
2022-10-26T01:39:49.063Z,8.88
2022-10-26T01:39:59.053Z,8.94
2022-10-26T01:40:09.088Z,8.91
2022-10-26T01:40:19.058Z,8.87
2022-10-26T01:40:29.055Z,8.96
2022-10-26T01:40:39.887Z,8.84
2022-10-26T01:40:49.052Z,9.10
2022-10-26T01:40:59.051Z,8.94
2022-10-26T01:41:09.060Z,8.96
2022-10-26T01:41:19.053Z,8.76
2022-10-26T01:41:29.064Z,8.88
2022-10-26T01:41:39.046Z,8.81
2022-10-26T01:41:49.057Z,8.87
2022-10-26T01:41:59.048Z,8.91
2022-10-26T01:42:09.052Z,8.76
2022-10-26T01:42:19.115Z,9.01
2022-10-26T01:42:29.050Z,8.87
2022-10-26T01:42:39.048Z,9.05
2022-10-26T01:42:49.893Z,8.88
2022-10-26T01:42:59.048Z,8.83
2022-10-26T01:43:09.048Z,8.97
2022-10-26T01:43:19.040Z,9.04
2022-10-26T01:43:29.067Z,8.93
2022-10-26T01:43:39.037Z,8.93
2022-10-26T01:43:49.043Z,8.97
2022-10-26T01:43:59.051Z,8.88
2022-10-26T01:44:09.040Z,9.05
2022-10-26T01:44:19.047Z,8.87
2022-10-26T01:44:29.055Z,8.86
2022-10-26T01:44:39.042Z,8.86
2022-10-26T01:44:51.881Z,9.01
2022-10-26T01:44:59.881Z,8.88
2022-10-26T01:45:09.049Z,8.88
2022-10-26T01:45:19.035Z,8.90
2022-10-26T01:45:29.036Z,8.93
2022-10-26T01:45:39.036Z,8.84
2022-10-26T01:45:49.030Z,9.02
2022-10-26T01:45:59.057Z,9.15
2022-10-26T01:46:09.117Z,8.93
2022-10-26T01:46:29.031Z,8.87
2022-10-26T01:46:39.032Z,8.78
2022-10-26T01:46:49.050Z,8.93
2022-10-26T01:46:59.123Z,9.02
2022-10-26T01:47:09.029Z,8.87
2022-10-26T01:47:19.040Z,8.83
2022-10-26T01:47:29.083Z,8.84
2022-10-26T01:47:39.037Z,8.88
2022-10-26T01:47:49.463Z,9.10
2022-10-26T01:47:59.022Z,8.88
2022-10-26T01:48:09.039Z,8.90
2022-10-26T01:48:19.022Z,8.87
2022-10-26T01:48:29.039Z,8.84
2022-10-26T01:48:39.015Z,8.90
2022-10-26T01:48:49.030Z,8.96
2022-10-26T01:48:59.903Z,9.01
2022-10-26T01:49:09.030Z,8.83
2022-10-26T01:49:19.018Z,8.87
2022-10-26T01:49:29.014Z,8.96
2022-10-26T01:49:39.026Z,8.99
2022-10-26T01:49:49.019Z,8.90
2022-10-26T01:49:59.016Z,8.91
2022-10-26T01:50:09.017Z,8.88
2022-10-26T01:50:19.008Z,8.88
2022-10-26T01:50:29.021Z,8.72
2022-10-26T01:50:39.028Z,8.88
2022-10-26T01:50:49.022Z,8.83
2022-10-26T01:50:59.021Z,8.88
2022-10-26T01:51:09.108Z,8.81
2022-10-26T01:51:19.006Z,8.83
2022-10-26T01:51:29.014Z,8.86
2022-10-26T01:51:39.011Z,8.66
2022-10-26T01:51:49.012Z,8.68
2022-10-26T01:51:59.019Z,8.87
2022-10-26T01:52:09.011Z,8.90
2022-10-26T01:52:19.016Z,8.75
2022-10-26T01:52:29.023Z,8.97
2022-10-26T01:52:39.091Z,8.81
2022-10-26T01:52:49.103Z,8.96
2022-10-26T01:52:59.010Z,9.04
2022-10-26T01:53:09.899Z,8.86
2022-10-26T01:53:18.997Z,8.93
2022-10-26T01:53:28.999Z,8.86
2022-10-26T01:53:38.995Z,8.75
2022-10-26T01:53:49.005Z,9.04
2022-10-26T01:53:58.993Z,8.91
2022-10-26T01:54:08.999Z,8.65
2022-10-26T01:54:18.995Z,8.84
2022-10-26T01:54:29.027Z,8.86
2022-10-26T01:54:38.997Z,8.87
2022-10-26T01:54:48.998Z,8.75
2022-10-26T01:54:59.005Z,8.83
2022-10-26T01:55:09.099Z,8.84
2022-10-26T01:55:19.155Z,8.78
2022-10-26T01:55:29.167Z,8.71
2022-10-26T01:55:38.987Z,8.76
2022-10-26T01:55:48.998Z,8.94
2022-10-26T01:55:59.011Z,8.76
2022-10-26T01:56:08.985Z,8.75
2022-10-26T01:56:18.990Z,9.01
2022-10-26T01:56:28.992Z,8.87
2022-10-26T01:56:38.993Z,8.87
2022-10-26T01:56:48.999Z,8.73
2022-10-26T01:56:58.984Z,8.97
2022-10-26T01:57:08.997Z,8.81
2022-10-26T01:57:19.876Z,9.01
2022-10-26T01:57:28.990Z,8.79
2022-10-26T01:57:38.988Z,8.79
2022-10-26T01:57:49.717Z,8.87
2022-10-26T01:57:58.994Z,8.78
2022-10-26T01:58:08.985Z,8.72
2022-10-26T01:58:18.977Z,8.84
2022-10-26T01:58:28.994Z,8.71
2022-10-26T01:58:38.995Z,8.93
2022-10-26T01:58:48.990Z,8.79
2022-10-26T01:58:58.986Z,8.87
2022-10-26T01:59:08.987Z,8.83
2022-10-26T01:59:19.072Z,8.87
2022-10-26T01:59:29.048Z,8.75
2022-10-26T01:59:38.968Z,8.84
2022-10-26T01:59:48.972Z,8.93
2022-10-26T01:59:58.980Z,8.81
2022-10-26T02:00:09.006Z,8.69
2022-10-26T02:00:18.994Z,8.99
2022-10-26T02:00:29.898Z,8.79
2022-10-26T02:00:38.963Z,8.79
2022-10-26T02:00:48.980Z,8.86
2022-10-26T02:00:59.016Z,8.71
2022-10-26T02:01:09.011Z,8.72
2022-10-26T02:01:19.021Z,8.88
2022-10-26T02:01:29.972Z,8.81
2022-10-26T02:01:39.074Z,8.79
2022-10-26T02:01:49.104Z,8.91
2022-10-26T02:01:58.972Z,8.78
2022-10-26T02:02:08.962Z,8.84
2022-10-26T02:02:18.965Z,8.86
2022-10-26T02:02:28.988Z,8.96
2022-10-26T02:02:38.957Z,8.76
2022-10-26T02:02:48.995Z,8.81
2022-10-26T02:02:59.030Z,9.04
2022-10-26T02:03:08.980Z,8.79
2022-10-26T02:03:19.001Z,8.87
2022-10-26T02:03:29.930Z,8.83
2022-10-26T02:03:39.006Z,8.91
2022-10-26T02:03:49.006Z,8.87
2022-10-26T02:03:59.004Z,8.72
2022-10-26T02:04:08.954Z,8.81
2022-10-26T02:04:18.980Z,8.96
2022-10-26T02:04:28.957Z,9.01
2022-10-26T02:04:38.962Z,8.75
2022-10-26T02:04:48.955Z,8.86
2022-10-26T02:04:59.069Z,8.87
2022-10-26T02:05:08.982Z,8.88
2022-10-26T02:05:18.964Z,8.88
2022-10-26T02:05:29.940Z,8.81
2022-10-26T02:05:38.940Z,8.91
2022-10-26T02:05:48.945Z,8.79
2022-10-26T02:05:58.947Z,8.96
2022-10-26T02:06:08.950Z,8.84
2022-10-26T02:06:18.950Z,8.91
2022-10-26T02:06:28.952Z,8.96
2022-10-26T02:06:38.949Z,8.97
2022-10-26T02:06:48.945Z,8.88
2022-10-26T02:06:58.953Z,8.86
2022-10-26T02:07:08.938Z,8.79
2022-10-26T02:07:18.935Z,8.87
2022-10-26T02:07:28.944Z,8.96
2022-10-26T02:07:39.983Z,8.78
2022-10-26T02:07:49.221Z,8.83
2022-10-26T02:07:58.957Z,8.96
2022-10-26T02:08:08.983Z,8.90
2022-10-26T02:08:18.931Z,8.93
2022-10-26T02:08:28.944Z,8.84
2022-10-26T02:08:38.932Z,8.79
2022-10-26T02:08:48.933Z,8.91
2022-10-26T02:08:58.967Z,8.88
2022-10-26T02:09:08.926Z,8.84
2022-10-26T02:09:18.936Z,8.90
2022-10-26T02:09:28.936Z,8.91
2022-10-26T02:09:39.999Z,8.91
2022-10-26T02:09:49.035Z,8.83
2022-10-26T02:09:58.972Z,8.96
2022-10-26T02:10:08.921Z,8.91
2022-10-26T02:10:18.931Z,8.97
2022-10-26T02:10:28.934Z,8.99
2022-10-26T02:10:38.923Z,8.83
2022-10-26T02:10:48.932Z,8.96
2022-10-26T02:10:58.918Z,8.91
2022-10-26T02:11:08.918Z,8.97
2022-10-26T02:11:18.960Z,8.90
2022-10-26T02:11:28.917Z,8.78
2022-10-26T02:11:38.918Z,9.16
2022-10-26T02:11:49.932Z,9.01
2022-10-26T02:11:58.916Z,9.10
2022-10-26T02:12:08.925Z,8.83
2022-10-26T02:12:18.912Z,9.05
2022-10-26T02:12:28.917Z,8.97
2022-10-26T02:12:39.020Z,8.84
2022-10-26T02:12:48.908Z,8.93
2022-10-26T02:12:58.910Z,8.81
2022-10-26T02:13:08.917Z,9.02
2022-10-26T02:13:18.969Z,8.94
2022-10-26T02:13:28.922Z,8.83
2022-10-26T02:13:38.920Z,8.93
2022-10-26T02:13:48.932Z,8.84
2022-10-26T02:13:59.004Z,8.88